Time;durP1;ratioP1;P1;durP2;ratioP2;P2;SDS_P1;SDS_P2;PMS_P1;PMS_P2;Temp;Humidity;BMP_temperature;BMP_pressure;BME280_temperature;BME280_humidity;BME280_pressure;Samples;Min_cycle;Max_cycle;Signal;HPM_P1;HPM_P2
2022/03/05 00:00:16;;;;;;;1.30;1.30;;;;;;;3.27;53.58;101016.08;104061;1280;140135;-75
2022/03/05 00:03:03;;;;;;;1.30;1.30;;;;;;;3.23;53.16;101019.02;104085;1281;110342;-76
2022/03/05 00:05:32;;;;;;;1.30;1.30;;;;;;;3.23;53.64;101019.73;104094;1279;141116;-76
2022/03/05 00:08:00;;;;;;;1.30;1.30;;;;;;;3.24;53.61;101024.12;104173;1281;108393;-76
2022/03/05 00:10:27;;;;;;;1.30;1.30;;;;;;;3.26;53.53;101021.86;104151;1280;96600;-76
2022/03/05 00:12:55;;;;;;;1.20;1.20;;;;;;;3.33;53.75;101023.02;104006;1281;140380;-77
2022/03/05 00:15:26;;;;;;;1.20;1.20;;;;;;;3.34;53.18;101023.73;104174;1281;108550;-76
2022/03/05 00:17:55;;;;;;;1.20;1.20;;;;;;;3.30;53.30;101018.05;104083;1280;139158;-76
2022/03/05 00:20:25;;;;;;;1.30;1.30;;;;;;;3.28;53.45;101018.91;104358;1281;108965;-76
2022/03/05 00:22:53;;;;;;;1.30;1.30;;;;;;;3.28;53.03;101015.23;104157;1279;95315;-76
2022/03/05 00:25:23;;;;;;;1.30;1.30;;;;;;;3.24;53.01;101018.68;103767;1280;429013;-75
2022/03/05 00:27:53;;;;;;;1.30;1.30;;;;;;;3.24;53.32;101017.10;104263;1281;110492;-75
2022/03/05 00:30:22;;;;;;;1.30;1.30;;;;;;;3.18;52.62;101017.89;103866;1281;139882;-76
2022/03/05 00:32:50;;;;;;;1.30;1.30;;;;;;;3.13;52.91;101015.72;104174;1281;108674;-76
2022/03/05 00:35:18;;;;;;;1.40;1.40;;;;;;;3.11;52.93;101011.12;104071;1280;139270;-75
2022/03/05 00:37:46;;;;;;;1.60;1.60;;;;;;;3.10;52.53;101011.47;104172;1281;95505;-76
2022/03/05 00:40:14;;;;;;;1.30;1.30;;;;;;;3.10;52.42;101009.36;104533;1280;109739;-76
2022/03/05 00:42:42;;;;;;;1.30;1.30;;;;;;;3.10;52.71;101013.40;103942;1281;137922;-75
2022/03/05 00:45:11;;;;;;;1.30;1.30;;;;;;;3.10;52.08;101011.81;104185;1281;108974;-76
2022/03/05 00:47:39;;;;;;;1.30;1.30;;;;;;;3.02;51.93;101011.70;104028;1281;139726;-76
2022/03/05 00:50:08;;;;;;;1.20;1.20;;;;;;;2.98;51.50;101012.00;104212;1281;95227;-75
2022/03/05 00:52:37;;;;;;;1.30;1.30;;;;;;;2.91;51.88;101009.79;104082;1281;109926;-75
2022/03/05 00:55:06;;;;;;;1.30;1.30;;;;;;;2.93;51.96;101010.34;103996;1281;139233;-76
2022/03/05 00:57:33;;;;;;;1.30;1.30;;;;;;;2.98;51.81;101010.07;104064;1281;105846;-76
2022/03/05 01:00:03;;;;;;;1.40;1.40;;;;;;;3.01;51.56;101007.65;104054;1281;140449;-75
2022/03/05 01:02:31;;;;;;;1.30;1.30;;;;;;;2.98;50.65;101005.50;104191;1279;95631;-75
2022/03/05 01:04:59;;;;;;;1.30;1.30;;;;;;;2.93;49.09;101002.62;104083;1279;110532;-75
2022/03/05 01:07:27;;;;;;;1.40;1.40;;;;;;;2.79;47.42;101000.14;104094;1280;140247;-75
2022/03/05 01:09:55;;;;;;;1.40;1.40;;;;;;;2.74;47.55;101001.65;104141;1281;108747;-76
2022/03/05 01:12:23;;;;;;;1.30;1.30;;;;;;;2.70;47.81;101001.23;104006;1279;140607;-77
2022/03/05 01:14:50;;;;;;;1.40;1.40;;;;;;;2.72;49.18;100998.80;103890;1281;95504;-75
2022/03/05 01:17:18;;;;;;;1.30;1.30;;;;;;;2.81;49.06;101001.40;104078;1281;139185;-75
2022/03/05 01:19:46;;;;;;;1.30;1.30;;;;;;;2.82;48.73;101000.89;104170;1280;100246;-75
2022/03/05 01:22:14;;;;;;;1.50;1.50;;;;;;;2.76;49.09;101002.73;104126;1281;108984;-75
2022/03/05 01:24:44;;;;;;;1.30;1.30;;;;;;;2.76;50.12;101003.06;104010;1281;139832;-75
2022/03/05 01:27:12;;;;;;;1.30;1.30;;;;;;;2.75;49.66;101001.48;104157;1281;95236;-75
2022/03/05 01:29:40;;;;;;;1.30;1.30;;;;;;;2.76;50.28;100997.11;103939;1281;141032;-76
2022/03/05 01:32:08;;;;;;;1.30;1.30;;;;;;;2.81;50.61;101003.33;104192;1277;99338;-76
2022/03/05 01:34:36;;;;;;;1.30;1.30;;;;;;;2.80;50.36;101001.91;103820;1281;109286;-76
2022/03/05 01:37:04;;;;;;;1.30;1.30;;;;;;;2.70;50.28;101002.45;104035;1280;139044;-75
2022/03/05 01:39:32;;;;;;;1.30;1.30;;;;;;;2.69;50.56;100999.98;104128;1280;95652;-76
2022/03/05 01:42:01;;;;;;;1.30;1.30;;;;;;;2.69;50.23;101001.21;104019;1278;139598;-76
2022/03/05 01:44:28;;;;;;;1.30;1.30;;;;;;;2.74;50.14;101001.80;104137;1280;99929;-76
2022/03/05 01:47:01;;;;;;;1.30;1.30;;;;;;;2.78;50.45;101003.80;104131;1279;109867;-76
2022/03/05 01:49:30;;;;;;;1.30;1.30;;;;;;;2.79;50.19;101008.73;104199;1279;140577;-75
2022/03/05 01:51:57;;;;;;;1.40;1.40;;;;;;;2.74;50.62;101008.13;104112;1280;95640;-75
2022/03/05 01:54:25;;;;;;;1.30;1.30;;;;;;;2.69;51.22;101010.68;103999;1280;138505;-76
2022/03/05 01:56:54;;;;;;;1.30;1.30;;;;;;;2.68;51.63;101012.42;104148;1281;100073;-76
2022/03/05 01:59:22;;;;;;;1.40;1.40;;;;;;;2.67;51.61;101012.21;104053;1279;139507;-75
2022/03/05 02:01:50;;;;;;;1.60;1.60;;;;;;;2.64;51.86;101016.21;104165;1279;95249;-77
2022/03/05 02:04:19;;;;;;;1.40;1.40;;;;;;;2.59;52.22;101009.13;104134;1279;95999;-77
2022/03/05 02:06:47;;;;;;;1.40;1.40;;;;;;;2.56;51.58;101008.19;104114;1280;139992;-75
2022/03/05 02:09:14;;;;;;;1.40;1.40;;;;;;;2.55;52.15;101011.51;104183;1279;99933;-76
2022/03/05 02:11:42;;;;;;;1.40;1.40;;;;;;;2.62;52.22;101009.88;104120;1280;141193;-76
2022/03/05 02:14:10;;;;;;;1.40;1.40;;;;;;;2.65;52.59;101009.92;104224;1279;95839;-76
2022/03/05 02:16:38;;;;;;;1.40;1.40;;;;;;;2.63;52.76;101012.34;104193;1280;95212;-76
2022/03/05 02:19:05;;;;;;;1.40;1.40;;;;;;;2.63;53.02;101010.41;104074;1281;139740;-76
2022/03/05 02:21:33;;;;;;;1.50;1.50;;;;;;;2.67;52.91;101009.77;104153;1280;99919;-76
2022/03/05 02:24:02;;;;;;;1.40;1.40;;;;;;;2.68;52.73;101010.86;104069;1280;139130;-77
2022/03/05 02:26:30;;;;;;;1.30;1.30;;;;;;;2.65;52.79;101008.17;104175;1279;95883;-77
2022/03/05 02:28:57;;;;;;;1.40;1.40;;;;;;;2.65;52.91;101006.41;104227;1278;95752;-75
2022/03/05 02:31:26;;;;;;;1.40;1.40;;;;;;;2.61;52.54;101004.05;104012;1280;141140;-75
2022/03/05 02:33:55;;;;;;;1.50;1.50;;;;;;;2.57;52.89;101004.86;104116;1280;99889;-77
2022/03/05 02:36:25;;;;;;;1.40;1.40;;;;;;;2.52;53.03;101003.73;104249;1279;139380;-76
2022/03/05 02:38:54;;;;;;;1.40;1.40;;;;;;;2.43;53.13;101001.67;104057;1280;95208;-75
2022/03/05 02:41:23;;;;;;;1.50;1.50;;;;;;;2.47;53.14;101001.03;104073;1280;140514;-77
2022/03/05 02:43:51;;;;;;;1.50;1.50;;;;;;;2.47;53.27;101004.73;104200;1279;109688;-77
2022/03/05 02:46:19;;;;;;;1.40;1.40;;;;;;;2.46;53.40;101005.41;104158;1278;99848;-76
2022/03/05 02:48:47;;;;;;;1.40;1.40;;;;;;;2.50;53.31;101005.11;104034;1278;139638;-76
2022/03/05 02:51:15;;;;;;;1.30;1.30;;;;;;;2.54;53.20;101005.19;104158;1279;95243;-76
2022/03/05 02:53:43;;;;;;;1.40;1.40;;;;;;;2.61;53.38;101005.30;104052;1279;139528;-76
2022/03/05 02:56:11;;;;;;;1.30;1.30;;;;;;;2.66;53.03;101008.88;104208;1278;110194;-76
2022/03/05 02:58:39;;;;;;;1.30;1.30;;;;;;;2.61;52.98;101008.27;104201;1280;99620;-76
2022/03/05 03:01:07;;;;;;;1.30;1.30;;;;;;;2.62;53.01;101010.05;104037;1279;139639;-75
2022/03/05 03:03:35;;;;;;;1.40;1.40;;;;;;;2.65;53.00;101011.50;104176;1278;95249;-76
2022/03/05 03:06:03;;;;;;;1.50;1.50;;;;;;;2.64;53.25;101017.45;104049;1279;138623;-76
2022/03/05 03:08:30;;;;;;;1.40;1.40;;;;;;;2.63;52.90;101012.16;104201;1279;110232;-76
2022/03/05 03:10:59;;;;;;;1.30;1.30;;;;;;;2.59;53.21;101012.79;104236;1280;99811;-76
2022/03/05 03:13:26;;;;;;;1.40;1.40;;;;;;;2.59;53.29;101013.85;104075;1278;138466;-76
2022/03/05 03:15:54;;;;;;;1.40;1.40;;;;;;;2.57;53.71;101007.69;104178;1279;95628;-76
2022/03/05 03:18:23;;;;;;;1.30;1.30;;;;;;;2.61;53.66;101010.04;104024;1280;138955;-77
2022/03/05 03:20:51;;;;;;;1.40;1.40;;;;;;;2.61;53.45;101008.96;104215;1279;110073;-76
2022/03/05 03:23:18;;;;;;;1.50;1.50;;;;;;;2.59;53.51;101008.23;103890;1281;137103;-76
2022/03/05 03:25:46;;;;;;;1.40;1.40;;;;;;;2.60;53.87;101010.54;104112;1279;109537;-77
2022/03/05 03:28:14;;;;;;;1.30;1.30;;;;;;;2.70;53.35;101008.60;104139;1278;95230;-76
2022/03/05 03:30:42;;;;;;;1.50;1.50;;;;;;;2.72;52.89;101006.34;104039;1279;139649;-76
2022/03/05 03:33:10;;;;;;;1.30;1.30;;;;;;;2.75;53.18;101008.31;104119;1280;110208;-76
2022/03/05 03:35:38;;;;;;;1.40;1.40;;;;;;;2.69;52.82;101004.36;103976;1280;141557;-76
2022/03/05 03:38:05;;;;;;;1.40;1.40;;;;;;;2.61;53.45;101009.15;104115;1279;108499;-76
2022/03/05 03:40:33;;;;;;;1.40;1.40;;;;;;;2.62;53.17;101007.42;104085;1279;95166;-76
2022/03/05 03:43:01;;;;;;;1.40;1.40;;;;;;;2.64;53.45;101006.22;104014;1278;139361;-75
2022/03/05 03:45:29;;;;;;;1.40;1.40;;;;;;;2.71;53.52;101014.39;104124;1279;110615;-76
2022/03/05 03:47:57;;;;;;;1.40;1.40;;;;;;;2.75;53.46;101015.52;104059;1279;139216;-76
2022/03/05 03:50:25;;;;;;;1.40;1.40;;;;;;;2.77;53.09;101015.00;104043;1281;109300;-77
2022/03/05 03:52:54;;;;;;;1.50;1.50;;;;;;;2.76;53.11;101021.67;104190;1280;95662;-76
2022/03/05 03:55:23;;;;;;;1.30;1.30;;;;;;;2.73;53.27;101023.89;104066;1279;140919;-76
2022/03/05 03:57:50;;;;;;;1.30;1.30;;;;;;;2.72;52.87;101022.99;104172;1279;109837;-76
2022/03/05 04:00:19;;;;;;;1.50;1.50;;;;;;;2.72;53.17;101022.47;104049;1279;140050;-76
2022/03/05 04:02:47;;;;;;;1.40;1.40;;;;;;;2.69;53.08;101026.81;104305;1279;108202;-77
2022/03/05 04:05:15;;;;;;;1.40;1.40;;;;;;;2.74;53.28;101024.77;104089;1279;139636;-76
2022/03/05 04:10:29;;;;;;;1.50;1.50;;;;;;;2.61;52.97;101028.08;104179;1279;110192;-77
2022/03/05 04:12:57;;;;;;;1.50;1.50;;;;;;;2.56;52.92;101028.52;104011;1280;139421;-77
2022/03/05 04:15:25;;;;;;;1.50;1.50;;;;;;;2.51;52.69;101027.56;104154;1278;108851;-76
2022/03/05 04:17:52;;;;;;;1.60;1.60;;;;;;;2.48;53.33;101024.02;104057;1279;139486;-76
2022/03/05 04:20:20;;;;;;;1.50;1.50;;;;;;;2.46;53.31;101028.38;104067;1281;95745;-78
2022/03/05 04:22:48;;;;;;;1.40;1.40;;;;;;;2.47;53.12;101028.90;104057;1281;110121;-77
2022/03/05 04:25:16;;;;;;;1.40;1.40;;;;;;;2.45;53.13;101029.94;104065;1279;141202;-78
2022/03/05 04:27:43;;;;;;;1.50;1.50;;;;;;;2.47;53.59;101030.14;103968;1281;109458;-77
2022/03/05 04:30:11;;;;;;;1.40;1.40;;;;;;;2.44;53.34;101029.20;104057;1279;139819;-75
2022/03/05 04:32:41;;;;;;;1.50;1.50;;;;;;;2.43;53.43;101029.71;104165;1281;96522;-77
2022/03/05 04:35:09;;;;;;;1.50;1.50;;;;;;;2.44;53.36;101033.23;104226;1279;140164;-76
2022/03/05 04:37:37;;;;;;;1.50;1.50;;;;;;;2.47;53.73;101033.63;104150;1280;100587;-76
2022/03/05 04:40:06;;;;;;;1.50;1.50;;;;;;;2.49;53.41;101035.77;104328;1281;109580;-77
2022/03/05 04:42:34;;;;;;;1.60;1.60;;;;;;;2.48;52.90;101031.04;104253;1279;140222;-77
2022/03/05 04:45:03;;;;;;;1.50;1.50;;;;;;;2.45;53.27;101029.58;104203;1280;95235;-78
2022/03/05 04:47:31;;;;;;;1.50;1.50;;;;;;;2.41;53.22;101030.36;104107;1280;140748;-77
2022/03/05 04:49:58;;;;;;;1.50;1.50;;;;;;;2.42;53.26;101032.84;104209;1279;100248;-77
2022/03/05 04:52:26;;;;;;;1.50;1.50;;;;;;;2.46;53.36;101035.38;103901;1281;108340;-76
2022/03/05 04:54:54;;;;;;;1.40;1.40;;;;;;;2.45;53.14;101038.52;104028;1279;140850;-75
2022/03/05 04:57:22;;;;;;;1.50;1.50;;;;;;;2.45;52.78;101038.69;104033;1281;95254;-77
2022/03/05 04:59:54;;;;;;;1.40;1.40;;;;;;;2.47;53.29;101040.64;103965;1281;139151;-77
2022/03/05 05:02:23;;;;;;;1.50;1.50;;;;;;;2.55;53.30;101046.90;104159;1279;99854;-77
2022/03/05 05:04:50;;;;;;;1.40;1.40;;;;;;;2.58;53.40;101049.23;104137;1279;109587;-76
2022/03/05 05:07:18;;;;;;;1.50;1.50;;;;;;;2.54;52.92;101056.53;104024;1280;141485;-76
2022/03/05 05:09:46;;;;;;;1.60;1.60;;;;;;;2.53;53.01;101051.97;103947;1281;95138;-75
2022/03/05 05:12:14;;;;;;;1.50;1.50;;;;;;;2.59;53.15;101050.14;104092;1279;139019;-77
2022/03/05 05:14:41;;;;;;;1.40;1.40;;;;;;;2.62;52.70;101050.54;104155;1279;100262;-77
2022/03/05 05:17:10;;;;;;;1.50;1.50;;;;;;;2.61;52.91;101052.29;104014;1280;139492;-76
2022/03/05 05:19:38;;;;;;;1.50;1.50;;;;;;;2.63;52.77;101050.21;104195;1279;96682;-77
2022/03/05 05:22:06;;;;;;;1.50;1.50;;;;;;;2.61;53.01;101053.34;104227;1279;95227;-76
2022/03/05 05:24:36;;;;;;;1.60;1.60;;;;;;;2.60;52.95;101052.95;104085;1279;138510;-76
2022/03/05 05:27:05;;;;;;;1.60;1.60;;;;;;;2.50;52.60;101061.75;104231;1279;100244;-76
2022/03/05 05:29:33;;;;;;;1.40;1.40;;;;;;;2.46;52.61;101064.11;103949;1279;140278;-76
2022/03/05 05:32:10;;;;;;;1.50;1.50;;;;;;;2.41;52.85;101065.08;104337;1279;95243;-76
2022/03/05 05:34:41;;;;;;;1.60;1.60;;;;;;;2.43;52.84;101065.98;104277;1279;95237;-76
2022/03/05 05:37:15;;;;;;;1.50;1.50;;;;;;;2.47;52.98;101070.27;104086;1279;140349;-76
2022/03/05 05:39:43;;;;;;;1.40;1.40;;;;;;;2.56;52.64;101076.19;104204;1279;99819;-76
2022/03/05 05:42:10;;;;;;;1.50;1.50;;;;;;;2.50;52.69;101071.20;104102;1279;140150;-76
2022/03/05 05:44:38;;;;;;;1.50;1.50;;;;;;;2.50;52.68;101077.86;104143;1278;95714;-76
2022/03/05 05:47:07;;;;;;;1.40;1.40;;;;;;;2.52;52.78;101080.34;104116;1281;95692;-76
2022/03/05 05:49:35;;;;;;;1.40;1.40;;;;;;;2.54;52.52;101081.42;103940;1281;139589;-76
2022/03/05 05:52:05;;;;;;;1.40;1.40;;;;;;;2.53;52.50;101080.36;104231;1279;100174;-76
2022/03/05 05:54:33;;;;;;;1.40;1.40;;;;;;;2.55;52.59;101082.48;104093;1279;140618;-76
2022/03/05 05:57:01;;;;;;;1.30;1.30;;;;;;;2.57;52.63;101084.29;104149;1279;95299;-76
2022/03/05 05:59:29;;;;;;;1.30;1.30;;;;;;;2.58;52.99;101085.17;104121;1279;140049;-75
2022/03/05 06:01:58;;;;;;;1.40;1.40;;;;;;;2.54;53.00;101087.05;104309;1279;110459;-78
2022/03/05 06:04:27;;;;;;;1.40;1.40;;;;;;;2.49;52.64;101087.31;104198;1280;100053;-77
2022/03/05 06:06:55;;;;;;;1.40;1.40;;;;;;;2.48;52.61;101084.13;104109;1279;140765;-76
2022/03/05 06:09:23;;;;;;;1.40;1.40;;;;;;;2.44;52.51;101086.52;104148;1279;96585;-75
2022/03/05 06:11:50;;;;;;;1.40;1.40;;;;;;;2.43;53.04;101094.71;104081;1279;139057;-77
2022/03/05 06:14:19;;;;;;;1.40;1.40;;;;;;;2.45;52.83;101095.29;104146;1281;110337;-76
2022/03/05 06:16:47;;;;;;;1.40;1.40;;;;;;;2.52;53.17;101095.59;104144;1279;100451;-76
2022/03/05 06:19:15;;;;;;;1.40;1.40;;;;;;;2.57;52.69;101096.20;104081;1279;140771;-77
2022/03/05 06:21:43;;;;;;;1.30;1.30;;;;;;;2.61;52.90;101099.79;104128;1279;95265;-77
2022/03/05 06:24:10;;;;;;;1.40;1.40;;;;;;;2.63;52.65;101101.23;104049;1279;139991;-77
2022/03/05 06:26:38;;;;;;;1.30;1.30;;;;;;;2.60;52.98;101102.23;104148;1279;110077;-76
2022/03/05 06:29:06;;;;;;;1.50;1.50;;;;;;;2.58;52.94;101104.48;104070;1281;99466;-76
2022/03/05 06:31:34;;;;;;;1.30;1.30;;;;;;;2.58;52.79;101106.91;104048;1279;139466;-75
2022/03/05 06:34:01;;;;;;;1.50;1.50;;;;;;;2.62;52.70;101111.57;104191;1279;95210;-77
2022/03/05 06:36:29;;;;;;;1.40;1.40;;;;;;;2.65;52.81;101107.05;104033;1280;139012;-76
2022/03/05 06:38:57;;;;;;;1.40;1.40;;;;;;;2.67;52.80;101108.66;104127;1279;110382;-76
2022/03/05 06:41:25;;;;;;;1.40;1.40;;;;;;;2.72;52.79;101114.51;104111;1279;139628;-76
2022/03/05 06:43:52;;;;;;;1.50;1.50;;;;;;;2.74;52.78;101115.79;104203;1279;108464;-76
2022/03/05 06:46:20;;;;;;;1.40;1.40;;;;;;;2.73;52.49;101115.60;104196;1279;95425;-78
2022/03/05 06:48:48;;;;;;;1.50;1.50;;;;;;;2.66;52.70;101116.19;104101;1279;139440;-76
2022/03/05 06:51:16;;;;;;;1.50;1.50;;;;;;;2.70;53.02;101119.92;104178;1279;110117;-76
2022/03/05 06:53:44;;;;;;;1.40;1.40;;;;;;;2.79;52.90;101117.11;103948;1281;140559;-78
2022/03/05 06:56:12;;;;;;;1.40;1.40;;;;;;;2.90;52.99;101124.13;104208;1279;107759;-77
2022/03/05 06:58:40;;;;;;;1.30;1.30;;;;;;;2.98;52.57;101126.70;103980;1281;95326;-78
2022/03/05 07:01:07;;;;;;;1.40;1.40;;;;;;;3.02;52.35;101130.48;103988;1279;141781;-77
2022/03/05 07:03:35;;;;;;;1.30;1.30;;;;;;;3.07;52.40;101128.97;104186;1279;110522;-77
2022/03/05 07:06:04;;;;;;;1.20;1.20;;;;;;;3.08;52.20;101130.40;104113;1279;139557;-76
2022/03/05 07:08:32;;;;;;;1.30;1.30;;;;;;;3.12;52.18;101130.10;103939;1281;109548;-76
2022/03/05 07:11:00;;;;;;;1.30;1.30;;;;;;;3.16;52.13;101131.58;104178;1279;95236;-75
2022/03/05 07:13:28;;;;;;;1.30;1.30;;;;;;;3.23;51.85;101129.56;103750;1281;140595;-75
2022/03/05 07:15:55;;;;;;;1.30;1.30;;;;;;;3.23;51.83;101131.14;104196;1279;109501;-76
2022/03/05 07:18:24;;;;;;;1.20;1.20;;;;;;;3.20;51.77;101128.83;104149;1279;140208;-76
2022/03/05 07:20:51;;;;;;;1.20;1.20;;;;;;;3.21;51.66;101132.69;104185;1279;109254;-76
2022/03/05 07:23:19;;;;;;;1.30;1.30;;;;;;;3.27;51.57;101133.84;104168;1277;139414;-77
2022/03/05 07:25:47;;;;;;;1.30;1.30;;;;;;;3.31;51.87;101131.80;104359;1278;95149;-78
2022/03/05 07:28:14;;;;;;;1.30;1.30;;;;;;;3.33;51.01;101136.40;104179;1279;109407;-76
2022/03/05 07:30:42;;;;;;;1.50;1.50;;;;;;;3.31;50.88;101139.18;104091;1279;138757;-77
2022/03/05 07:33:13;;;;;;;1.20;1.20;;;;;;;3.34;50.94;101137.27;104192;1279;107935;-76
2022/03/05 07:35:41;;;;;;;1.20;1.20;;;;;;;3.21;50.12;101139.19;104121;1279;139089;-76
2022/03/05 07:38:09;;;;;;;1.30;1.30;;;;;;;3.12;50.81;101142.55;104065;1279;95269;-77
2022/03/05 07:40:37;;;;;;;1.30;1.30;;;;;;;3.18;50.89;101147.39;104085;1279;110318;-75
2022/03/05 07:43:05;;;;;;;1.30;1.30;;;;;;;3.14;50.42;101146.63;104079;1279;138648;-76
2022/03/05 07:45:33;;;;;;;1.30;1.30;;;;;;;3.14;50.55;101147.16;104158;1279;108326;-77
2022/03/05 07:48:00;;;;;;;1.30;1.30;;;;;;;3.15;50.50;101144.89;104146;1279;139192;-77
2022/03/05 07:50:28;;;;;;;1.20;1.20;;;;;;;3.24;50.92;101148.70;104298;1279;95239;-76
2022/03/05 07:52:56;;;;;;;1.30;1.30;;;;;;;3.36;51.32;101150.30;104240;1279;108817;-76
2022/03/05 07:55:24;;;;;;;1.30;1.30;;;;;;;3.48;50.91;101149.62;104144;1279;138966;-76
2022/03/05 07:57:52;;;;;;;1.40;1.40;;;;;;;3.61;50.08;101149.08;104049;1281;108705;-76
2022/03/05 08:00:19;;;;;;;1.20;1.20;;;;;;;3.62;49.97;101146.47;104141;1279;141169;-77
2022/03/05 08:02:53;;;;;;;1.20;1.20;;;;;;;3.62;49.97;101149.98;104276;1279;95594;-77
2022/03/05 08:05:21;;;;;;;1.20;1.20;;;;;;;3.69;49.81;101151.31;104210;1279;139964;-77
2022/03/05 08:07:49;;;;;;;1.30;1.30;;;;;;;3.76;49.80;101148.05;104236;1277;99369;-75
2022/03/05 08:10:17;;;;;;;1.20;1.20;;;;;;;3.84;49.17;101148.52;104209;1278;109899;-76
2022/03/05 08:12:45;;;;;;;1.20;1.20;;;;;;;3.89;49.18;101152.45;104209;1279;138409;-75
2022/03/05 08:15:13;;;;;;;1.10;1.10;;;;;;;3.99;49.46;101153.46;104258;1279;95263;-76
2022/03/05 08:17:55;;;;;;;1.20;1.20;;;;;;;4.14;49.64;101157.00;104064;1279;140563;-76
2022/03/05 08:20:25;;;;;;;1.10;1.10;;;;;;;4.23;48.19;101153.59;104201;1279;97765;-77
2022/03/05 08:22:53;;;;;;;1.00;1.00;;;;;;;4.25;48.13;101153.25;104368;1279;108902;-76
2022/03/05 08:25:21;;;;;;;1.00;1.00;;;;;;;4.27;47.70;101151.70;104108;1280;139602;-77
2022/03/05 08:27:49;;;;;;;1.10;1.10;;;;;;;4.28;48.69;101151.54;104246;1279;95762;-76
2022/03/05 08:30:17;;;;;;;1.00;1.00;;;;;;;4.36;48.14;101156.90;104187;1279;140105;-77
2022/03/05 08:32:45;;;;;;;1.10;1.10;;;;;;;4.42;47.40;101158.02;104194;1279;99475;-77
2022/03/05 08:35:14;;;;;;;1.00;1.00;;;;;;;4.41;47.68;101158.55;104083;1279;139080;-75
2022/03/05 08:37:43;;;;;;;1.10;1.10;;;;;;;4.48;47.51;101159.50;104303;1279;95768;-75
2022/03/05 08:40:12;;;;;;;1.00;1.00;;;;;;;4.61;47.47;101158.92;104215;1279;95675;-77
2022/03/05 08:42:40;;;;;;;1.00;1.00;;;;;;;4.78;47.07;101158.05;104177;1279;138837;-76
2022/03/05 08:45:09;;;;;;;1.10;1.10;;;;;;;4.91;46.52;101158.52;104309;1279;98394;-76
2022/03/05 08:47:37;;;;;;;1.00;1.00;;;;;;;4.92;45.97;101160.27;104102;1279;139366;-76
2022/03/05 08:50:06;;;;;;;0.90;0.90;;;;;;;4.93;46.18;101163.29;104340;1278;95193;-75
2022/03/05 08:52:37;;;;;;;1.00;1.00;;;;;;;4.94;46.32;101166.83;104289;1279;95101;-77
2022/03/05 08:55:11;;;;;;;1.00;1.00;;;;;;;4.98;46.20;101165.63;104077;1279;140279;-77
2022/03/05 08:57:39;;;;;;;1.10;1.10;;;;;;;5.10;46.22;101168.89;104178;1279;99323;-76
2022/03/05 09:00:10;;;;;;;1.00;1.00;;;;;;;5.16;45.19;101171.76;104174;1279;138621;-76
2022/03/05 09:02:37;;;;;;;1.00;1.00;;;;;;;4.96;44.51;101172.11;104279;1279;95218;-77
2022/03/05 09:05:06;;;;;;;1.00;1.00;;;;;;;4.97;45.46;101169.66;104304;1279;95574;-75
2022/03/05 09:07:34;;;;;;;1.00;1.00;;;;;;;5.00;45.11;101173.04;104134;1279;138290;-76
2022/03/05 09:10:03;;;;;;;1.00;1.00;;;;;;;4.95;44.97;101172.80;104327;1279;100005;-76
2022/03/05 09:12:31;;;;;;;1.00;1.00;;;;;;;4.96;44.77;101171.77;104347;1279;141349;-77
2022/03/05 09:14:58;;;;;;;0.90;0.90;;;;;;;4.97;45.15;101173.19;104210;1279;95677;-77
2022/03/05 09:17:26;;;;;;;1.00;1.00;;;;;;;5.00;44.24;101169.69;104195;1279;140304;-76
2022/03/05 09:19:54;;;;;;;1.10;1.10;;;;;;;5.07;44.98;101173.09;104199;1279;110129;-76
2022/03/05 09:22:22;;;;;;;1.00;1.00;;;;;;;5.15;44.78;101172.29;104161;1280;98782;-76
2022/03/05 09:24:49;;;;;;;1.10;1.10;;;;;;;5.16;44.75;101173.17;104142;1279;139435;-76
2022/03/05 09:27:17;;;;;;;0.90;0.90;;;;;;;5.13;44.75;101172.98;104329;1279;95223;-76
2022/03/05 09:29:45;;;;;;;1.00;1.00;;;;;;;5.11;44.76;101173.48;104007;1279;140515;-75
2022/03/05 09:32:13;;;;;;;0.90;0.90;;;;;;;5.11;44.47;101173.48;104033;1281;110190;-76
2022/03/05 09:34:41;;;;;;;1.00;1.00;;;;;;;5.03;43.96;101177.12;104261;1279;99837;-76
2022/03/05 09:37:08;;;;;;;1.00;1.00;;;;;;;5.02;43.62;101178.86;104107;1279;138943;-76
2022/03/05 09:39:37;;;;;;;1.00;1.00;;;;;;;5.02;42.43;101176.39;104205;1279;95220;-75
2022/03/05 09:42:05;;;;;;;0.90;0.90;;;;;;;4.84;41.83;101187.48;104016;1281;139446;-76
2022/03/05 09:44:34;;;;;;;0.90;0.90;;;;;;;4.78;42.77;101189.20;104305;1279;109665;-76
2022/03/05 09:47:03;;;;;;;1.00;1.00;;;;;;;4.82;43.72;101192.57;104690;1279;99962;-76
2022/03/05 09:49:36;;;;;;;1.10;1.10;;;;;;;4.83;43.56;101195.03;104015;1279;139565;-76
2022/03/05 09:52:08;;;;;;;1.00;1.00;;;;;;;4.82;43.92;101198.38;104333;1279;95685;-77
2022/03/05 09:54:36;;;;;;;1.10;1.10;;;;;;;4.83;43.65;101193.98;104151;1279;141609;-78
2022/03/05 09:57:09;;;;;;;0.90;0.90;;;;;;;4.80;43.59;101196.08;104237;1279;110416;-76
2022/03/05 09:59:37;;;;;;;1.00;1.00;;;;;;;4.75;43.15;101197.77;104172;1279;140395;-76
2022/03/05 10:02:07;;;;;;;1.00;1.00;;;;;;;4.68;43.09;101202.80;104152;1279;109295;-76
2022/03/05 10:04:35;;;;;;;1.00;1.00;;;;;;;4.57;42.66;101207.25;104239;1279;95244;-76
2022/03/05 10:07:12;;;;;;;1.00;1.00;;;;;;;4.43;43.35;101212.54;104229;1279;139913;-75
2022/03/05 10:09:42;;;;;;;1.20;1.20;;;;;;;4.47;44.04;101210.84;104300;1279;109804;-75
2022/03/05 10:12:24;;;;;;;1.10;1.10;;;;;;;4.48;43.38;101209.08;104113;1278;139866;-76
2022/03/05 10:15:07;;;;;;;1.00;1.00;;;;;;;4.40;42.56;101212.52;104470;1279;109377;-77
2022/03/05 10:17:57;;;;;;;1.20;1.20;;;;;;;4.28;42.37;101213.58;104451;1279;141206;-77
2022/03/05 10:20:33;;;;;;;1.00;1.00;;;;;;;4.28;43.14;101214.82;104362;1279;95742;-76
2022/03/05 10:23:08;;;;;;;1.20;1.20;;;;;;;4.44;43.26;101215.02;104311;1279;109767;-75
2022/03/05 10:25:46;;;;;;;1.20;1.20;;;;;;;4.49;42.75;101216.30;104243;1279;139024;-77
2022/03/05 10:28:18;;;;;;;1.10;1.10;;;;;;;4.44;42.30;101213.45;104222;1279;110156;-76
2022/03/05 10:30:49;;;;;;;1.10;1.10;;;;;;;4.47;41.85;101215.23;104220;1279;139718;-77
2022/03/05 10:33:32;;;;;;;1.00;1.00;;;;;;;4.39;42.32;101219.17;104282;1279;95346;-77
2022/03/05 10:36:02;;;;;;;1.10;1.10;;;;;;;4.36;40.86;101215.45;104149;1279;139234;-76
2022/03/05 10:38:57;;;;;;;1.20;1.20;;;;;;;4.36;41.48;101217.73;104252;1279;97186;-76
2022/03/05 10:41:30;;;;;;;1.00;1.00;;;;;;;4.36;41.09;101222.48;104079;1279;139663;-76
2022/03/05 10:44:18;;;;;;;1.00;1.00;;;;;;;4.34;41.63;101227.02;104329;1280;95851;-76
2022/03/05 10:46:47;;;;;;;1.10;1.10;;;;;;;4.31;41.37;101221.01;104345;1279;95266;-76
2022/03/05 10:49:17;;;;;;;1.00;1.00;;;;;;;4.37;42.09;101223.55;104104;1279;140555;-77
2022/03/05 10:52:06;;;;;;;1.00;1.00;;;;;;;4.45;41.28;101221.02;104496;1279;98358;-77
2022/03/05 10:54:40;;;;;;;1.10;1.10;;;;;;;4.46;40.93;101219.60;104165;1279;139300;-76
2022/03/05 10:57:11;;;;;;;1.10;1.10;;;;;;;4.43;40.30;101216.94;104577;1279;95239;-76
2022/03/05 10:59:43;;;;;;;1.10;1.10;;;;;;;4.46;41.15;101217.86;104144;1279;139137;-77
2022/03/05 11:02:13;;;;;;;1.10;1.10;;;;;;;4.45;42.16;101217.31;104369;1279;110745;-74
2022/03/05 11:04:42;;;;;;;1.00;1.00;;;;;;;4.40;42.63;101220.59;104498;1278;99740;-77
2022/03/05 11:07:13;;;;;;;1.00;1.00;;;;;;;4.37;42.65;101216.34;104264;1279;140940;-76
2022/03/05 11:09:44;;;;;;;1.10;1.10;;;;;;;4.39;42.84;101217.77;104498;1279;95224;-77
2022/03/05 11:12:16;;;;;;;1.10;1.10;;;;;;;4.40;42.98;101217.60;104253;1279;139960;-77
2022/03/05 11:14:46;;;;;;;1.10;1.10;;;;;;;4.37;42.43;101213.70;104630;1279;110010;-77
2022/03/05 11:17:14;;;;;;;1.10;1.10;;;;;;;4.28;41.87;101217.11;104186;1279;141028;-76
2022/03/05 11:19:43;;;;;;;1.20;1.20;;;;;;;4.22;42.36;101215.27;104220;1279;109554;-77
2022/03/05 11:22:12;;;;;;;1.20;1.20;;;;;;;4.19;42.56;101216.64;104248;1279;95596;-76
2022/03/05 11:24:40;;;;;;;1.20;1.20;;;;;;;4.23;42.55;101212.82;104282;1279;141441;-76
2022/03/05 11:27:12;;;;;;;1.10;1.10;;;;;;;4.25;42.69;101211.98;104325;1278;109909;-76
2022/03/05 11:29:57;;;;;;;1.10;1.10;;;;;;;4.24;41.87;101210.19;104311;1279;139560;-76